Shelby, NC (28150)

9:52 PM EST on November 26, 2014 (GMT -0500)
North Shelby | Change Station
CLOSE
Current Station
Personal Weather Station
Location: Shelby, NC
Elevation: 863 ft
Nearby Weather Stations

Elev 863 ft 35.31 °N, 81.54 °W | Updated 4 minutes ago

Partly Cloudy
Partly Cloudy
44.9 °F
Feels Like 45 °F
N
0.0
Wind Variable Wind from NNE
Gusts 0.0 mph

Today
High -- | Low -- °F
--% Chance of Precip.
Yesterday
High -- | Low -- °F
Precip. -- in
7:12 AM 5:14 PM
Waxing Crescent, 25% visible
Pressure 30.01 in
Visibility 10.0 miles
Clouds Mostly Cloudy 11000 ft
Windchill 45 °F
Dew Point 39 °F
Humidity 81%
Rainfall 0.88 in
Snow Depth Not available.
UV 0 out of 12
Pollen .30 out of 12
Air Quality Not available.
Flu Activity Not available.
METAR KEHO 270235Z AUTO 18003KT 10SM BKN110 07/04 A3001 RMK AO2 T00730044

More Conditions Fewer Conditions

Pressure 30.01 in
Visibility 10.0 miles
Clouds Mostly Cloudy 11000 ft
Windchill 45 °F
Dew Point 39 °F
Humidity 81%
Rainfall 0.88 in
Snow Depth Not available.
UV 0 out of 12
Pollen .30 out of 12
Air Quality Not available.
Flu Activity Not available.
METAR KEHO 270235Z AUTO 18003KT 10SM BKN110 07/04 A3001 RMK AO2 T00730044

More Conditions Fewer Conditions

10-Day Weather Forecast

Almanac

Astronomy

Nov. 26, 2014 Rise Set
Actual Time
Civil Twilight
Nautical Twilight
Astronomical Twilight
Moon
Length of Visible Light
Length of Day
Tomorrow will be .
, % of the Moon is Illuminated

Today's Extremes

State Highs State Lows

Community

WunderPhotos

Upload Photos

1,773,949 photos uploaded!

WunderBlogs® & News

Nearby

Air Quality

  Air Quality AQ Index Pollutant
Not available.

Snow Depth

Station Depth Elevation

Earthquake Activity

City Distance Mag. Time & Date
Minimum magnitude displayed is 2.5.

Coastal Water Temperatures

Place Temperature

Nearby Weather Stations